createdAt,value
2023-03-30T00:00:23.753Z,93.64
2023-03-30T00:01:27.957Z,93.58
2023-03-30T00:02:32.317Z,93.60
2023-03-30T00:03:36.558Z,93.58
2023-03-30T00:04:40.803Z,93.60
2023-03-30T00:05:45.055Z,93.55
2023-03-30T00:06:49.267Z,93.49
2023-03-30T00:07:53.535Z,93.55
2023-03-30T00:08:57.731Z,93.57
2023-03-30T00:10:02.071Z,93.55
2023-03-30T00:11:06.560Z,93.51
2023-03-30T00:12:10.485Z,93.47
2023-03-30T00:13:14.717Z,93.42
2023-03-30T00:14:19.019Z,93.42
2023-03-30T00:15:23.306Z,93.38
2023-03-30T00:16:27.531Z,93.36
2023-03-30T00:17:31.685Z,93.34
2023-03-30T00:18:35.932Z,93.34
2023-03-30T00:19:40.199Z,93.31
2023-03-30T00:20:44.553Z,93.31
2023-03-30T00:21:48.685Z,93.27
2023-03-30T00:22:53.026Z,93.32
2023-03-30T00:23:57.292Z,93.37
2023-03-30T00:25:01.642Z,93.39
2023-03-30T00:26:05.918Z,93.37
2023-03-30T00:27:10.048Z,93.38
2023-03-30T00:28:14.350Z,93.42
2023-03-30T00:29:18.510Z,93.44
2023-03-30T00:30:22.796Z,93.45
2023-03-30T00:31:27.065Z,93.47
2023-03-30T00:32:31.287Z,93.48
2023-03-30T00:33:45.816Z,93.49
2023-03-30T00:34:39.832Z,93.50
2023-03-30T00:35:44.135Z,93.52
2023-03-30T00:36:48.297Z,93.56
2023-03-30T00:37:52.556Z,93.54
2023-03-30T00:38:56.776Z,93.56
2023-03-30T00:40:01.048Z,93.56
2023-03-30T00:41:05.530Z,93.57
2023-03-30T00:42:09.564Z,93.58
2023-03-30T00:43:13.819Z,93.58
2023-03-30T00:44:24.087Z,93.60
2023-03-30T00:45:26.913Z,93.64
2023-03-30T00:46:31.533Z,93.61
2023-03-30T00:47:35.354Z,93.68
2023-03-30T00:48:39.451Z,93.83
2023-03-30T00:49:43.757Z,93.91
2023-03-30T00:50:48.020Z,94.00
2023-03-30T00:51:52.304Z,94.17
2023-03-30T00:52:56.484Z,94.17
2023-03-30T00:54:00.731Z,94.20
2023-03-30T00:55:04.952Z,94.17
2023-03-30T00:56:09.290Z,94.16
2023-03-30T00:57:13.549Z,94.13
2023-03-30T00:58:17.753Z,94.14
2023-03-30T00:59:22.081Z,94.17
2023-03-30T01:00:26.356Z,94.23
2023-03-30T01:01:30.594Z,94.33
2023-03-30T01:02:34.884Z,94.38
2023-03-30T01:03:39.210Z,94.52
2023-03-30T01:04:43.153Z,94.65
2023-03-30T01:05:47.611Z,94.80
2023-03-30T01:06:51.778Z,94.98
2023-03-30T01:07:56.025Z,95.04
2023-03-30T01:09:14.340Z,95.14
2023-03-30T01:10:17.506Z,95.23
2023-03-30T01:11:21.701Z,95.29
2023-03-30T01:12:25.995Z,95.37
2023-03-30T01:13:44.242Z,95.50
2023-03-30T01:14:47.529Z,95.68
2023-03-30T01:15:51.738Z,95.83
2023-03-30T01:16:55.873Z,95.89
2023-03-30T01:18:00.126Z,95.99
2023-03-30T01:19:04.267Z,96.11
2023-03-30T01:20:08.423Z,96.16
2023-03-30T01:21:12.764Z,96.19
2023-03-30T01:22:17.038Z,96.26
2023-03-30T01:23:21.389Z,96.35
2023-03-30T01:24:25.617Z,96.40
2023-03-30T01:25:29.851Z,96.56
2023-03-30T01:26:34.040Z,96.70
2023-03-30T01:27:38.301Z,96.78
2023-03-30T01:28:42.544Z,96.89
2023-03-30T01:29:46.744Z,97.01
2023-03-30T01:31:05.300Z,97.05
2023-03-30T01:32:08.064Z,97.08
2023-03-30T01:33:12.279Z,97.17
2023-03-30T01:34:16.468Z,97.11
2023-03-30T01:35:20.859Z,97.11
2023-03-30T01:36:24.987Z,97.06
2023-03-30T01:37:29.191Z,97.00
2023-03-30T01:38:33.482Z,96.94
2023-03-30T01:39:37.685Z,96.87
2023-03-30T01:40:41.979Z,96.82
2023-03-30T01:41:46.118Z,96.76
2023-03-30T01:42:50.350Z,96.70
2023-03-30T01:43:54.651Z,96.64
2023-03-30T01:44:58.779Z,96.59
2023-03-30T01:46:03.075Z,96.58
2023-03-30T01:47:07.328Z,96.59
2023-03-30T01:48:25.585Z,96.54
2023-03-30T01:49:28.438Z,96.47
2023-03-30T01:50:32.706Z,96.42
2023-03-30T01:51:37.039Z,96.37
2023-03-30T01:52:41.379Z,96.34
2023-03-30T01:53:45.502Z,96.30
2023-03-30T01:54:49.711Z,96.25
2023-03-30T01:55:54.013Z,96.22
2023-03-30T01:56:58.279Z,96.17
2023-03-30T01:58:02.459Z,96.12
2023-03-30T01:59:06.687Z,96.10
2023-03-30T02:00:10.817Z,96.06
2023-03-30T02:01:15.205Z,96.09
2023-03-30T02:02:19.417Z,96.18
2023-03-30T02:03:23.865Z,96.17
2023-03-30T02:04:27.886Z,96.15
2023-03-30T02:05:32.267Z,96.15
2023-03-30T02:06:36.445Z,96.13
2023-03-30T02:07:40.712Z,96.13
2023-03-30T02:08:44.937Z,96.11
2023-03-30T02:09:49.224Z,96.22
2023-03-30T02:10:53.666Z,96.30
2023-03-30T02:11:57.792Z,96.49
2023-03-30T02:13:01.912Z,96.96
2023-03-30T02:14:06.311Z,97.26
2023-03-30T02:15:10.529Z,97.60
2023-03-30T02:16:14.790Z,97.98
2023-03-30T02:17:19.059Z,98.33
2023-03-30T02:18:23.266Z,98.52
2023-03-30T02:19:27.477Z,98.68
2023-03-30T02:20:31.726Z,98.98
2023-03-30T02:21:36.018Z,99.24
2023-03-30T02:22:40.265Z,99.48
2023-03-30T02:23:44.472Z,99.73
2023-03-30T02:24:48.702Z,99.75
2023-03-30T02:25:53.005Z,99.71
2023-03-30T02:26:57.193Z,99.81
2023-03-30T02:28:01.428Z,99.90
2023-03-30T02:29:05.663Z,100.00
2023-03-30T02:30:09.950Z,100.00
2023-03-30T02:31:14.175Z,100.00
2023-03-30T02:32:18.387Z,100.00
2023-03-30T02:33:22.614Z,100.00
2023-03-30T02:34:26.879Z,100.00
2023-03-30T02:35:31.026Z,100.00
2023-03-30T02:36:35.288Z,100.00
2023-03-30T02:37:39.599Z,100.00
2023-03-30T02:38:43.766Z,100.00
2023-03-30T02:39:48.071Z,100.00
2023-03-30T02:40:52.265Z,100.00
2023-03-30T02:41:56.500Z,100.00
2023-03-30T02:43:00.743Z,100.00
2023-03-30T02:44:08.081Z,100.00
2023-03-30T02:45:11.494Z,100.00
2023-03-30T02:46:15.736Z,100.00
2023-03-30T02:47:19.981Z,100.00
2023-03-30T02:48:24.189Z,100.00
2023-03-30T02:49:28.386Z,100.00
2023-03-30T02:50:32.669Z,100.00
2023-03-30T02:51:36.861Z,100.00
2023-03-30T02:52:41.203Z,100.00
2023-03-30T02:53:45.441Z,100.00
2023-03-30T02:55:03.679Z,100.00
2023-03-30T02:56:06.624Z,100.00
2023-03-30T02:57:10.962Z,100.00
2023-03-30T02:58:15.074Z,100.00
2023-03-30T02:59:19.330Z,100.00
2023-03-30T03:00:23.593Z,100.00
2023-03-30T03:01:27.955Z,100.00
2023-03-30T03:02:32.164Z,100.00
2023-03-30T03:03:36.606Z,100.00
2023-03-30T03:04:40.674Z,100.00
2023-03-30T03:05:44.891Z,100.00
2023-03-30T03:06:49.241Z,100.00
2023-03-30T03:07:53.443Z,100.00
2023-03-30T03:08:57.716Z,100.00
2023-03-30T03:10:01.939Z,100.00
2023-03-30T03:11:06.393Z,100.00
2023-03-30T03:12:10.519Z,100.00
2023-03-30T03:13:14.691Z,100.00
2023-03-30T03:14:18.948Z,100.00
2023-03-30T03:15:23.176Z,100.00
2023-03-30T03:16:27.481Z,100.00
2023-03-30T03:17:31.710Z,100.00
2023-03-30T03:18:35.916Z,100.00
2023-03-30T03:19:40.169Z,100.00
2023-03-30T03:20:44.470Z,100.00
2023-03-30T03:21:48.642Z,100.00
2023-03-30T03:22:52.880Z,100.00
2023-03-30T03:23:57.243Z,100.00
2023-03-30T03:25:01.551Z,100.00
2023-03-30T03:26:05.753Z,100.00
2023-03-30T03:27:09.958Z,100.00
2023-03-30T03:28:14.311Z,100.00
2023-03-30T03:29:18.520Z,100.00
2023-03-30T03:30:22.934Z,100.00
2023-03-30T03:31:27.451Z,100.00
2023-03-30T03:32:31.462Z,100.00
2023-03-30T03:33:35.698Z,100.00
2023-03-30T03:34:40.010Z,100.00
2023-03-30T03:35:44.250Z,100.00
2023-03-30T03:36:48.427Z,100.00
2023-03-30T03:37:52.558Z,100.00
2023-03-30T03:38:56.846Z,100.00
2023-03-30T03:40:01.141Z,100.00
2023-03-30T03:41:05.631Z,100.00
2023-03-30T03:42:09.673Z,100.00
2023-03-30T03:43:14.073Z,100.00
2023-03-30T03:44:18.354Z,100.00
2023-03-30T03:45:22.648Z,100.00
2023-03-30T03:46:26.950Z,100.00
2023-03-30T03:47:31.189Z,100.00
2023-03-30T03:48:35.433Z,100.00
2023-03-30T03:49:42.760Z,100.00
2023-03-30T03:50:46.049Z,100.00
2023-03-30T03:51:50.276Z,100.00
2023-03-30T03:52:54.560Z,100.00
2023-03-30T03:53:58.759Z,100.00
2023-03-30T03:55:03.014Z,100.00
2023-03-30T03:56:07.312Z,100.00
2023-03-30T03:57:11.578Z,100.00
2023-03-30T03:58:15.785Z,100.00
2023-03-30T03:59:20.033Z,100.00
2023-03-30T04:00:24.329Z,100.00
2023-03-30T04:01:28.510Z,100.00
2023-03-30T04:02:32.897Z,100.00
2023-03-30T04:03:37.035Z,100.00
2023-03-30T04:04:41.428Z,100.00
2023-03-30T04:05:45.536Z,100.00
2023-03-30T04:06:49.777Z,100.00
2023-03-30T04:07:53.896Z,100.00
2023-03-30T04:08:58.119Z,100.00
2023-03-30T04:10:02.434Z,100.00
2023-03-30T04:11:06.693Z,100.00
2023-03-30T04:12:10.932Z,100.00
2023-03-30T04:13:15.164Z,100.00
2023-03-30T04:14:19.310Z,100.00
2023-03-30T04:15:26.698Z,100.00
2023-03-30T04:16:30.039Z,100.00
2023-03-30T04:17:34.311Z,100.00
2023-03-30T04:18:38.593Z,100.00
2023-03-30T04:19:42.883Z,100.00
2023-03-30T04:20:47.148Z,100.00
2023-03-30T04:21:51.369Z,100.00
2023-03-30T04:22:55.686Z,100.00
2023-03-30T04:23:59.943Z,100.00
2023-03-30T04:25:04.174Z,100.00
2023-03-30T04:26:08.424Z,100.00
2023-03-30T04:27:15.772Z,100.00
2023-03-30T04:28:19.035Z,100.00
2023-03-30T04:29:23.250Z,100.00
2023-03-30T04:30:27.577Z,100.00
2023-03-30T04:31:31.832Z,100.00
2023-03-30T04:32:36.100Z,100.00
2023-03-30T04:33:40.423Z,100.00
2023-03-30T04:34:44.619Z,100.00
2023-03-30T04:35:48.981Z,100.00
2023-03-30T04:36:53.175Z,100.00
2023-03-30T04:37:57.398Z,100.00
2023-03-30T04:39:01.626Z,100.00
2023-03-30T04:40:05.845Z,100.00
2023-03-30T04:41:10.076Z,100.00
2023-03-30T04:42:14.395Z,100.00
2023-03-30T04:43:18.658Z,100.00
2023-03-30T04:44:22.951Z,100.00
2023-03-30T04:45:27.205Z,100.00
2023-03-30T04:46:31.368Z,100.00
2023-03-30T04:47:35.794Z,100.00
2023-03-30T04:48:39.876Z,100.00
2023-03-30T04:49:44.147Z,100.00
2023-03-30T04:50:48.346Z,100.00
2023-03-30T04:51:52.574Z,100.00
2023-03-30T04:52:56.759Z,100.00
2023-03-30T04:54:01.017Z,100.00
2023-03-30T04:55:05.300Z,100.00
2023-03-30T04:56:09.641Z,100.00
2023-03-30T04:57:13.851Z,100.00
2023-03-30T04:58:18.091Z,100.00
2023-03-30T04:59:22.319Z,100.00
2023-03-30T05:00:26.535Z,100.00
2023-03-30T05:01:30.834Z,100.00
2023-03-30T05:02:35.085Z,100.00
2023-03-30T05:03:39.343Z,100.00
2023-03-30T05:04:43.435Z,100.00
2023-03-30T05:05:47.659Z,100.00
2023-03-30T05:06:51.922Z,100.00
2023-03-30T05:07:56.245Z,100.00
2023-03-30T05:09:00.384Z,100.00
2023-03-30T05:10:04.625Z,100.00
2023-03-30T05:11:08.840Z,100.00
2023-03-30T05:12:13.083Z,100.00
2023-03-30T05:13:17.299Z,100.00
2023-03-30T05:14:21.548Z,100.00
2023-03-30T05:15:25.798Z,100.00
2023-03-30T05:16:30.095Z,100.00
2023-03-30T05:17:34.407Z,100.00
2023-03-30T05:18:38.540Z,100.00
2023-03-30T05:19:42.774Z,100.00
2023-03-30T05:20:47.032Z,100.00
2023-03-30T05:21:51.216Z,100.00
2023-03-30T05:22:55.537Z,100.00
2023-03-30T05:23:59.611Z,100.00
2023-03-30T05:25:04.020Z,100.00
2023-03-30T05:26:08.278Z,100.00
2023-03-30T05:27:12.461Z,100.00
2023-03-30T05:28:16.700Z,100.00
2023-03-30T05:29:21.040Z,100.00
2023-03-30T05:30:25.262Z,100.00
2023-03-30T05:31:29.525Z,100.00
2023-03-30T05:32:33.993Z,100.00
2023-03-30T05:33:37.978Z,100.00
2023-03-30T05:34:42.217Z,100.00
2023-03-30T05:35:46.566Z,100.00
2023-03-30T05:36:50.690Z,100.00
2023-03-30T05:37:55.063Z,100.00
2023-03-30T05:38:59.254Z,100.00
2023-03-30T05:40:03.489Z,100.00
2023-03-30T05:41:07.677Z,100.00
2023-03-30T05:42:11.990Z,100.00
2023-03-30T05:43:16.274Z,100.00
2023-03-30T05:44:22.458Z,100.00
2023-03-30T05:45:24.755Z,100.00
2023-03-30T05:46:32.148Z,100.00
2023-03-30T05:47:35.270Z,100.00
2023-03-30T05:48:39.528Z,100.00
2023-03-30T05:49:43.911Z,100.00
2023-03-30T05:50:48.074Z,100.00
2023-03-30T05:51:52.334Z,100.00
2023-03-30T05:52:56.650Z,100.00
2023-03-30T05:54:00.805Z,100.00
2023-03-30T05:55:05.020Z,100.00
2023-03-30T05:56:09.264Z,100.00
2023-03-30T05:57:13.549Z,100.00
2023-03-30T05:58:17.782Z,100.00
2023-03-30T05:59:21.998Z,100.00
2023-03-30T06:00:26.298Z,100.00
2023-03-30T06:01:30.645Z,100.00
2023-03-30T06:02:34.992Z,100.00
2023-03-30T06:03:39.404Z,100.00
2023-03-30T06:06:10.449Z,100.00
2023-03-30T06:07:14.580Z,100.00
2023-03-30T06:08:20.089Z,100.00
2023-03-30T06:09:23.060Z,100.00
2023-03-30T06:10:27.452Z,100.00
2023-03-30T06:11:31.736Z,100.00
2023-03-30T06:12:35.942Z,100.00
2023-03-30T06:13:40.138Z,100.00
2023-03-30T06:14:44.336Z,100.00
2023-03-30T06:15:48.585Z,100.00
2023-03-30T06:16:52.938Z,100.00
2023-03-30T06:17:57.595Z,100.00
2023-03-30T06:19:01.343Z,100.00
2023-03-30T06:20:05.665Z,100.00
2023-03-30T06:21:09.958Z,100.00
2023-03-30T06:22:14.151Z,100.00
2023-03-30T06:23:18.390Z,100.00
2023-03-30T06:24:22.636Z,100.00
2023-03-30T06:25:26.893Z,100.00
2023-03-30T06:26:31.127Z,100.00
2023-03-30T06:27:35.382Z,100.00
2023-03-30T06:28:39.630Z,100.00
2023-03-30T06:29:43.897Z,100.00
2023-03-30T06:30:48.126Z,100.00
2023-03-30T06:31:52.437Z,100.00
2023-03-30T06:32:56.777Z,100.00
2023-03-30T06:34:00.948Z,100.00
2023-03-30T06:35:05.201Z,100.00
2023-03-30T06:36:09.602Z,100.00
2023-03-30T06:37:13.823Z,100.00
2023-03-30T06:38:18.103Z,100.00
2023-03-30T06:39:36.392Z,100.00
2023-03-30T06:40:39.534Z,100.00
2023-03-30T06:41:43.792Z,100.00
2023-03-30T06:42:47.874Z,100.00
2023-03-30T06:43:52.157Z,100.00
2023-03-30T06:44:56.421Z,100.00
2023-03-30T06:46:00.676Z,100.00
2023-03-30T06:47:04.832Z,100.00
2023-03-30T06:48:09.206Z,100.00
2023-03-30T06:49:13.436Z,100.00
2023-03-30T06:50:17.643Z,100.00
2023-03-30T06:51:21.909Z,100.00
2023-03-30T06:52:26.238Z,100.00
2023-03-30T06:53:30.569Z,100.00
2023-03-30T06:54:34.776Z,100.00
2023-03-30T06:55:39.103Z,100.00
2023-03-30T06:56:43.359Z,100.00
2023-03-30T06:57:47.562Z,100.00
2023-03-30T06:58:51.853Z,100.00
2023-03-30T06:59:56.133Z,100.00
2023-03-30T07:01:00.464Z,100.00
2023-03-30T07:02:04.642Z,100.00
2023-03-30T07:03:09.011Z,100.00
2023-03-30T07:04:13.215Z,100.00
2023-03-30T07:05:17.415Z,100.00
2023-03-30T07:06:21.745Z,100.00
2023-03-30T07:07:25.976Z,100.00
2023-03-30T07:08:30.244Z,100.00
2023-03-30T07:09:34.491Z,100.00
2023-03-30T07:10:38.842Z,100.00
2023-03-30T07:11:43.046Z,100.00
2023-03-30T07:12:47.269Z,100.00
2023-03-30T07:13:51.540Z,100.00
2023-03-30T07:14:55.892Z,100.00
2023-03-30T07:16:00.038Z,100.00
2023-03-30T07:17:07.662Z,100.00
2023-03-30T07:18:10.688Z,100.00
2023-03-30T07:19:14.870Z,100.00
2023-03-30T07:20:19.106Z,100.00
2023-03-30T07:21:23.473Z,100.00
2023-03-30T07:22:27.645Z,100.00
2023-03-30T07:23:31.879Z,100.00
2023-03-30T07:24:36.103Z,100.00
2023-03-30T07:25:40.329Z,100.00
2023-03-30T07:26:44.736Z,100.00
2023-03-30T07:27:48.811Z,100.00
2023-03-30T07:28:53.063Z,100.00
2023-03-30T07:30:04.541Z,100.00
2023-03-30T07:31:01.713Z,100.00
2023-03-30T07:32:05.954Z,100.00
2023-03-30T07:33:10.378Z,100.00
2023-03-30T07:34:14.481Z,100.00
2023-03-30T07:35:18.754Z,100.00
2023-03-30T07:36:23.003Z,100.00
2023-03-30T07:37:27.209Z,100.00
2023-03-30T07:38:31.594Z,100.00
2023-03-30T07:39:35.873Z,100.00
2023-03-30T07:40:40.102Z,100.00
2023-03-30T07:41:44.370Z,100.00
2023-03-30T07:42:48.664Z,100.00
2023-03-30T07:43:52.907Z,100.00
2023-03-30T07:44:57.140Z,100.00
2023-03-30T07:46:01.421Z,100.00
2023-03-30T07:47:05.639Z,100.00
2023-03-30T07:48:09.947Z,100.00
2023-03-30T07:49:14.190Z,100.00
2023-03-30T07:50:18.535Z,100.00
2023-03-30T07:51:22.720Z,100.00
2023-03-30T07:52:27.008Z,100.00
2023-03-30T07:53:31.272Z,100.00
2023-03-30T07:54:35.519Z,100.00
2023-03-30T07:55:39.760Z,100.00
2023-03-30T07:56:44.082Z,100.00
2023-03-30T07:57:48.296Z,100.00
2023-03-30T07:58:52.545Z,100.00
2023-03-30T07:59:56.814Z,100.00
2023-03-30T08:01:01.088Z,100.00
2023-03-30T08:02:05.536Z,100.00
2023-03-30T08:03:09.820Z,100.00
2023-03-30T08:04:14.037Z,100.00
2023-03-30T08:05:18.266Z,100.00
2023-03-30T08:06:22.446Z,100.00
2023-03-30T08:07:26.831Z,100.00
2023-03-30T08:08:31.084Z,100.00
2023-03-30T08:09:35.334Z,100.00
2023-03-30T08:10:39.584Z,100.00
2023-03-30T08:11:43.795Z,100.00
2023-03-30T08:12:48.057Z,100.00
2023-03-30T08:13:52.292Z,100.00
2023-03-30T08:14:56.864Z,100.00
2023-03-30T08:16:00.983Z,100.00
2023-03-30T08:17:05.261Z,100.00
2023-03-30T08:18:09.561Z,100.00
2023-03-30T08:19:13.804Z,100.00
2023-03-30T08:20:18.034Z,100.00
2023-03-30T08:21:22.311Z,100.00
2023-03-30T08:22:40.562Z,100.00
2023-03-30T08:23:43.807Z,100.00
2023-03-30T08:24:47.946Z,100.00
2023-03-30T08:25:52.275Z,100.00
2023-03-30T08:26:56.478Z,100.00
2023-03-30T08:28:00.836Z,100.00
2023-03-30T08:29:05.057Z,100.00
2023-03-30T08:30:09.358Z,100.00
2023-03-30T08:31:13.579Z,100.00
2023-03-30T08:32:17.846Z,100.00
2023-03-30T08:33:22.113Z,100.00
2023-03-30T08:34:26.370Z,100.00
2023-03-30T08:35:30.691Z,100.00
2023-03-30T08:36:34.909Z,100.00
2023-03-30T08:37:39.171Z,100.00
2023-03-30T08:38:43.389Z,100.00
2023-03-30T08:39:47.750Z,100.00
2023-03-30T08:40:52.102Z,100.00
2023-03-30T08:41:56.299Z,100.00
2023-03-30T08:43:00.545Z,100.00
2023-03-30T08:44:04.893Z,100.00
2023-03-30T08:45:09.073Z,100.00
2023-03-30T08:46:13.532Z,100.00
2023-03-30T08:47:17.625Z,100.00
2023-03-30T08:48:21.917Z,100.00
2023-03-30T08:49:26.179Z,100.00
2023-03-30T08:50:30.487Z,100.00
2023-03-30T08:51:34.594Z,100.00
2023-03-30T08:52:38.951Z,100.00
2023-03-30T08:53:43.216Z,100.00
2023-03-30T08:54:47.455Z,100.00
2023-03-30T08:55:51.718Z,100.00
2023-03-30T08:56:56.014Z,100.00
2023-03-30T08:58:00.240Z,100.00
2023-03-30T08:59:18.688Z,100.00
2023-03-30T09:00:21.795Z,100.00
2023-03-30T09:01:26.262Z,100.00
2023-03-30T09:02:30.470Z,100.00
2023-03-30T09:03:34.577Z,100.00
2023-03-30T09:04:38.880Z,100.00
2023-03-30T09:05:43.205Z,100.00
2023-03-30T09:06:47.444Z,100.00
2023-03-30T09:07:51.827Z,100.00
2023-03-30T09:08:56.001Z,100.00
2023-03-30T09:10:00.313Z,100.00
2023-03-30T09:11:04.829Z,100.00
2023-03-30T09:12:08.927Z,100.00
2023-03-30T09:13:13.165Z,100.00
2023-03-30T09:14:17.551Z,100.00
2023-03-30T09:15:21.851Z,100.00
2023-03-30T09:16:26.220Z,100.00
2023-03-30T09:17:30.530Z,100.00
2023-03-30T09:18:34.850Z,100.00
2023-03-30T09:19:39.134Z,100.00
2023-03-30T09:20:45.898Z,100.00
2023-03-30T09:21:47.791Z,100.00
2023-03-30T09:22:52.113Z,100.00
2023-03-30T09:23:56.455Z,100.00
2023-03-30T09:25:00.698Z,100.00
2023-03-30T09:26:05.006Z,100.00
2023-03-30T09:27:09.294Z,100.00
2023-03-30T09:28:13.639Z,100.00
2023-03-30T09:29:17.912Z,100.00
2023-03-30T09:30:22.176Z,100.00
2023-03-30T09:31:26.594Z,100.00
2023-03-30T09:32:30.955Z,100.00
2023-03-30T09:33:35.135Z,100.00
2023-03-30T09:34:39.431Z,100.00
2023-03-30T09:35:43.767Z,100.00
2023-03-30T09:36:47.993Z,100.00
2023-03-30T09:37:52.373Z,100.00
2023-03-30T09:38:56.658Z,100.00
2023-03-30T09:40:01.038Z,100.00
2023-03-30T09:41:05.354Z,100.00
2023-03-30T09:42:23.561Z,100.00
2023-03-30T09:43:26.604Z,100.00
2023-03-30T09:44:30.839Z,100.00
2023-03-30T09:45:35.126Z,100.00
2023-03-30T09:46:39.522Z,100.00
2023-03-30T09:47:43.873Z,100.00
2023-03-30T09:48:48.182Z,100.00
2023-03-30T09:49:52.532Z,100.00
2023-03-30T09:50:56.860Z,100.00
2023-03-30T09:52:01.112Z,100.00
2023-03-30T09:53:05.358Z,100.00
2023-03-30T09:54:09.687Z,100.00
2023-03-30T09:55:14.029Z,100.00
2023-03-30T09:56:18.303Z,100.00
2023-03-30T09:57:22.776Z,100.00
2023-03-30T09:58:26.920Z,100.00
2023-03-30T09:59:31.244Z,100.00
2023-03-30T10:00:35.492Z,100.00
2023-03-30T10:01:39.778Z,100.00
2023-03-30T10:02:44.152Z,100.00
2023-03-30T10:03:48.544Z,100.00
2023-03-30T10:04:52.907Z,100.00
2023-03-30T10:05:56.943Z,100.00
2023-03-30T10:07:12.839Z,100.00
2023-03-30T10:08:05.552Z,100.00
2023-03-30T10:09:09.877Z,100.00
2023-03-30T10:10:14.208Z,100.00
2023-03-30T10:11:18.563Z,100.00
2023-03-30T10:12:22.757Z,100.00
2023-03-30T10:13:41.161Z,100.00
2023-03-30T10:14:44.216Z,100.00
2023-03-30T10:15:48.529Z,100.00
2023-03-30T10:16:52.705Z,100.00
2023-03-30T10:17:56.932Z,100.00
2023-03-30T10:19:01.327Z,100.00
2023-03-30T10:20:13.696Z,100.00
2023-03-30T10:21:09.874Z,100.00
2023-03-30T10:22:14.308Z,100.00
2023-03-30T10:23:18.557Z,100.00
2023-03-30T10:24:22.942Z,100.00
2023-03-30T10:25:27.268Z,100.00
2023-03-30T10:26:31.463Z,100.00
2023-03-30T10:27:35.672Z,100.00
2023-03-30T10:28:40.067Z,100.00
2023-03-30T10:29:44.313Z,100.00
2023-03-30T10:30:48.594Z,100.00
2023-03-30T10:31:53.085Z,100.00
2023-03-30T10:32:57.316Z,100.00
2023-03-30T10:34:15.459Z,100.00
2023-03-30T10:35:18.653Z,100.00
2023-03-30T10:36:22.867Z,100.00
2023-03-30T10:37:27.046Z,100.00
2023-03-30T10:38:31.490Z,100.00
2023-03-30T10:39:35.766Z,100.00
2023-03-30T10:40:40.170Z,100.00
2023-03-30T10:41:44.433Z,100.00
2023-03-30T10:42:48.729Z,100.00
2023-03-30T10:43:53.131Z,100.00
2023-03-30T10:44:57.519Z,100.00
2023-03-30T10:46:12.760Z,100.00
2023-03-30T10:47:06.117Z,100.00
2023-03-30T10:48:10.469Z,100.00
2023-03-30T10:49:14.613Z,100.00
2023-03-30T10:50:19.168Z,100.00
2023-03-30T10:51:23.302Z,100.00
2023-03-30T10:52:27.658Z,100.00
2023-03-30T10:53:31.984Z,100.00
2023-03-30T10:54:36.376Z,100.00
2023-03-30T10:55:40.662Z,100.00
2023-03-30T10:56:45.049Z,100.00
2023-03-30T10:57:49.302Z,100.00
2023-03-30T10:58:53.495Z,100.00
2023-03-30T10:59:59.983Z,100.00
2023-03-30T11:01:02.287Z,100.00
2023-03-30T11:02:06.608Z,100.00
2023-03-30T11:03:11.169Z,100.00
2023-03-30T11:04:23.277Z,100.00
2023-03-30T11:05:19.562Z,100.00
2023-03-30T11:06:23.882Z,100.00
2023-03-30T11:07:28.156Z,100.00
2023-03-30T11:08:32.617Z,100.00
2023-03-30T11:09:36.878Z,100.00
2023-03-30T11:10:43.952Z,100.00
2023-03-30T11:11:45.538Z,100.00
2023-03-30T11:12:49.829Z,100.00
2023-03-30T11:13:54.208Z,100.00
2023-03-30T11:14:58.500Z,100.00
2023-03-30T11:16:03.064Z,100.00
2023-03-30T11:17:07.218Z,100.00
2023-03-30T11:18:11.597Z,100.00
2023-03-30T11:19:15.908Z,100.00
2023-03-30T11:20:20.127Z,100.00
2023-03-30T11:21:24.529Z,100.00
2023-03-30T11:22:30.260Z,100.00
2023-03-30T11:23:33.076Z,100.00
2023-03-30T11:24:37.485Z,100.00
2023-03-30T11:25:41.856Z,100.00
2023-03-30T11:26:46.255Z,100.00
2023-03-30T11:27:50.638Z,100.00
2023-03-30T11:28:54.986Z,100.00
2023-03-30T11:29:59.306Z,100.00
2023-03-30T11:31:03.588Z,100.00
2023-03-30T11:32:08.022Z,100.00
2023-03-30T11:33:12.360Z,100.00
2023-03-30T11:34:16.600Z,100.00
2023-03-30T11:35:21.045Z,100.00
2023-03-30T11:36:25.383Z,100.00
2023-03-30T11:37:32.632Z,99.66
2023-03-30T11:38:35.996Z,99.47
2023-03-30T11:39:40.404Z,99.37
2023-03-30T11:40:44.663Z,99.26
2023-03-30T11:41:49.073Z,99.18
2023-03-30T11:42:53.434Z,99.17
2023-03-30T11:43:57.645Z,99.20
2023-03-30T11:45:01.999Z,99.26
2023-03-30T11:46:06.687Z,99.52
2023-03-30T11:47:10.667Z,99.85
2023-03-30T11:48:15.076Z,100.00
2023-03-30T11:49:19.473Z,100.00
2023-03-30T11:50:23.843Z,100.00
2023-03-30T11:51:28.100Z,100.00
2023-03-30T11:52:32.536Z,100.00
2023-03-30T11:53:36.906Z,100.00
2023-03-30T11:54:49.627Z,100.00
2023-03-30T11:55:45.675Z,99.86
2023-03-30T11:56:49.966Z,99.43
2023-03-30T11:57:54.347Z,99.02
2023-03-30T11:58:58.608Z,98.22
2023-03-30T12:00:02.968Z,97.56
2023-03-30T12:01:07.603Z,97.17
2023-03-30T12:03:39.080Z,96.77
2023-03-30T12:05:47.546Z,96.69
2023-03-30T12:06:51.910Z,96.77
2023-03-30T12:07:56.353Z,96.83
2023-03-30T12:09:00.683Z,96.40
2023-03-30T12:10:08.480Z,96.09
2023-03-30T12:11:11.450Z,95.74
2023-03-30T12:12:15.925Z,95.64
2023-03-30T12:13:20.227Z,95.55
2023-03-30T12:14:24.594Z,95.66
2023-03-30T12:15:29.034Z,95.74
2023-03-30T12:16:33.445Z,95.64
2023-03-30T12:17:37.776Z,95.44
2023-03-30T12:18:42.042Z,95.40
2023-03-30T12:19:56.001Z,95.37
2023-03-30T12:20:50.766Z,95.39
2023-03-30T12:21:55.010Z,95.40
2023-03-30T12:22:59.320Z,95.34
2023-03-30T12:24:03.640Z,95.43
2023-03-30T12:25:22.019Z,95.59
2023-03-30T12:26:25.162Z,96.06
2023-03-30T12:27:29.395Z,96.44
2023-03-30T12:28:52.267Z,96.85
2023-03-30T12:30:00.850Z,97.17
2023-03-30T12:30:42.305Z,97.50
2023-03-30T12:31:46.785Z,97.68
2023-03-30T12:32:50.990Z,97.88
2023-03-30T12:33:55.354Z,98.02
2023-03-30T12:34:59.715Z,98.23
2023-03-30T12:36:04.277Z,98.36
2023-03-30T12:37:08.263Z,98.69
2023-03-30T12:38:12.706Z,99.05
2023-03-30T12:39:17.100Z,99.26
2023-03-30T12:40:21.479Z,99.38
2023-03-30T12:41:25.812Z,99.41
2023-03-30T12:42:30.077Z,99.46
2023-03-30T12:43:34.520Z,99.55
2023-03-30T12:44:38.727Z,99.70
2023-03-30T12:45:43.110Z,99.97
2023-03-30T12:46:47.361Z,100.00
2023-03-30T12:47:51.743Z,100.00
2023-03-30T12:48:56.038Z,100.00
2023-03-30T12:50:00.208Z,100.00
2023-03-30T12:51:04.816Z,100.00
2023-03-30T12:52:08.929Z,100.00
2023-03-30T12:53:13.190Z,100.00
2023-03-30T12:54:17.528Z,100.00
2023-03-30T12:55:21.869Z,100.00
2023-03-30T12:56:26.205Z,100.00
2023-03-30T12:57:30.640Z,100.00
2023-03-30T12:58:37.064Z,100.00
2023-03-30T12:59:39.260Z,100.00
2023-03-30T13:00:43.640Z,100.00
2023-03-30T13:01:47.972Z,100.00
2023-03-30T13:02:52.339Z,100.00
2023-03-30T13:03:56.739Z,100.00
2023-03-30T13:05:07.164Z,100.00
2023-03-30T13:06:10.213Z,100.00
2023-03-30T13:07:14.632Z,100.00
2023-03-30T13:08:18.864Z,100.00
2023-03-30T13:09:23.301Z,100.00
2023-03-30T13:10:27.677Z,100.00
2023-03-30T13:11:31.972Z,100.00
2023-03-30T13:12:36.412Z,100.00
2023-03-30T13:13:40.678Z,100.00
2023-03-30T13:14:45.097Z,100.00
2023-03-30T13:15:49.369Z,100.00
2023-03-30T13:17:07.931Z,99.59
2023-03-30T13:18:11.134Z,98.97
2023-03-30T13:19:15.492Z,98.54
2023-03-30T13:20:29.884Z,97.98
2023-03-30T13:21:24.224Z,97.54
2023-03-30T13:22:28.686Z,97.33
2023-03-30T13:23:32.929Z,97.39
2023-03-30T13:24:37.248Z,97.67
2023-03-30T13:25:41.708Z,97.74
2023-03-30T13:26:45.945Z,97.68
2023-03-30T13:27:50.353Z,97.45
2023-03-30T13:28:54.764Z,97.05
2023-03-30T13:29:59.099Z,96.98
2023-03-30T13:31:03.395Z,97.00
2023-03-30T13:32:07.642Z,97.19
2023-03-30T13:33:11.926Z,97.45
2023-03-30T13:34:16.322Z,97.64
2023-03-30T13:35:20.731Z,97.87
2023-03-30T13:36:25.003Z,98.12